Time;durP1;ratioP1;P1;durP2;ratioP2;P2;SDS_P1;SDS_P2;PMS_P1;PMS_P2;Temp;Humidity;BMP_temperature;BMP_pressure;BME280_temperature;BME280_humidity;BME280_pressure;Samples;Min_cycle;Max_cycle;Signal;HPM_P1;HPM_P2
2023/07/15 00:02:09;;;;;;;6.75;3.35;;;;;;;19.91;72.68;95998.22;5071845;28;20044;-72
2023/07/15 00:04:36;;;;;;;6.07;3.17;;;;;;;19.87;73.14;96007.66;5052831;28;20132;-71
2023/07/15 00:07:05;;;;;;;4.97;3.45;;;;;;;19.86;73.17;96009.63;5052118;28;20488;-72
2023/07/15 00:09:33;;;;;;;5.90;3.50;;;;;;;19.78;72.42;96005.22;5052626;28;20128;-71
2023/07/15 00:12:00;;;;;;;4.60;3.17;;;;;;;19.71;72.62;96011.50;5052915;28;20045;-71
2023/07/15 00:14:28;;;;;;;5.90;3.70;;;;;;;19.73;72.88;96013.88;5060899;28;20040;-72
2023/07/15 00:16:55;;;;;;;5.18;3.25;;;;;;;19.59;72.14;96006.31;5072217;28;20055;-71
2023/07/15 00:19:23;;;;;;;4.93;2.97;;;;;;;19.69;72.81;96004.81;5071756;28;20048;-71
2023/07/15 00:21:50;;;;;;;5.28;3.33;;;;;;;19.70;71.99;96000.84;5072067;28;20136;-71
2023/07/15 00:24:17;;;;;;;4.78;3.03;;;;;;;19.75;73.05;96001.28;5071537;28;20048;-71
2023/07/15 00:26:47;;;;;;;4.72;3.28;;;;;;;19.78;73.09;96005.22;5071988;28;20044;-71
2023/07/15 00:29:13;;;;;;;4.75;3.00;;;;;;;19.78;72.15;96013.50;5070989;28;20519;-71
2023/07/15 00:31:42;;;;;;;6.22;3.50;;;;;;;19.58;72.17;96004.72;5072085;28;20049;-71
2023/07/15 00:34:08;;;;;;;4.75;3.05;;;;;;;19.65;73.37;96013.06;5071438;28;20048;-71
2023/07/15 00:36:36;;;;;;;4.72;3.20;;;;;;;19.68;73.68;96011.47;5072105;28;20048;-71
2023/07/15 00:39:04;;;;;;;5.38;3.00;;;;;;;19.69;73.51;96013.09;5070729;28;20052;-72
2023/07/15 00:41:34;;;;;;;5.55;3.28;;;;;;;19.68;72.85;96011.47;5071704;28;20403;-71
2023/07/15 00:44:02;;;;;;;8.57;3.53;;;;;;;19.33;72.90;96012.03;5071064;28;20122;-71
2023/07/15 00:46:54;;;;;;;4.97;3.42;;;;;;;19.17;73.64;96017.81;5055857;28;20043;-71
2023/07/15 00:49:23;;;;;;;7.22;3.40;;;;;;;18.95;75.01;96009.34;5071274;28;20056;-71
2023/07/15 00:51:55;;;;;;;6.85;3.42;;;;;;;19.16;74.30;96010.69;5071557;28;20044;-71
2023/07/15 00:54:22;;;;;;;4.60;3.25;;;;;;;19.17;74.56;96004.00;5069990;28;20103;-71
2023/07/15 00:56:49;;;;;;;5.82;3.08;;;;;;;19.17;75.10;95999.28;5071883;28;20048;-71
2023/07/15 00:59:16;;;;;;;5.25;3.55;;;;;;;19.20;75.25;96003.22;5071537;28;20115;-71
2023/07/15 01:01:45;;;;;;;4.90;3.00;;;;;;;19.22;73.45;96014.69;5071783;28;20072;-71
2023/07/15 01:04:11;;;;;;;6.80;3.05;;;;;;;19.17;73.96;96004.81;5071983;28;20048;-75
2023/07/15 01:06:38;;;;;;;4.20;3.17;;;;;;;19.21;73.89;96016.66;5072174;28;20056;-71
2023/07/15 01:09:07;;;;;;;4.90;3.35;;;;;;;19.12;73.42;96013.44;5071316;28;20043;-72
2023/07/15 01:11:34;;;;;;;4.93;3.22;;;;;;;19.06;73.91;96009.44;5062723;28;20040;-71
2023/07/15 01:14:01;;;;;;;4.28;3.13;;;;;;;19.14;73.22;96002.00;5060931;28;20060;-72
2023/07/15 01:16:29;;;;;;;6.82;3.10;;;;;;;19.03;73.23;96010.97;5059428;28;20036;-71
2023/07/15 01:18:57;;;;;;;4.80;3.10;;;;;;;19.07;74.06;96010.22;5072794;28;20179;-71
2023/07/15 01:21:25;;;;;;;4.72;3.08;;;;;;;19.14;74.46;96010.28;5059903;28;20051;-74
2023/07/15 01:23:52;;;;;;;5.35;3.30;;;;;;;19.10;73.72;96014.97;5071765;28;20169;-71
2023/07/15 01:26:19;;;;;;;5.22;3.63;;;;;;;19.12;73.34;96007.13;5070219;28;20060;-71
2023/07/15 01:28:45;;;;;;;4.18;2.80;;;;;;;19.14;74.13;96011.06;5071175;28;20048;-72
2023/07/15 01:31:14;;;;;;;6.53;3.63;;;;;;;19.11;74.33;96006.34;5070576;28;20055;-72
2023/07/15 01:33:40;;;;;;;5.15;3.13;;;;;;;19.06;74.61;96009.44;5070575;28;20044;-71
2023/07/15 01:36:07;;;;;;;5.85;3.22;;;;;;;19.07;74.64;96005.50;5070132;28;20405;-71
2023/07/15 01:38:33;;;;;;;6.88;4.00;;;;;;;18.95;74.70;96003.84;5070593;28;20063;-72
2023/07/15 01:41:02;;;;;;;9.27;3.55;;;;;;;18.86;75.38;96011.63;5070840;28;20040;-72
2023/07/15 01:43:28;;;;;;;5.15;3.30;;;;;;;18.91;76.61;95993.94;5069879;28;20495;-71
2023/07/15 01:45:55;;;;;;;5.00;2.90;;;;;;;18.91;76.71;95997.47;5070090;28;20044;-71
2023/07/15 01:48:21;;;;;;;5.88;3.30;;;;;;;18.64;76.45;95993.25;5069894;28;20047;-72
2023/07/15 01:50:48;;;;;;;4.18;3.30;;;;;;;18.76;76.94;96004.03;5070642;28;20060;-71
2023/07/15 01:53:15;;;;;;;4.90;3.20;;;;;;;18.84;76.72;96002.91;5069370;28;20507;-72
2023/07/15 01:55:41;;;;;;;5.53;3.63;;;;;;;18.85;76.87;96003.75;5070463;28;20530;-71
2023/07/15 01:58:09;;;;;;;4.28;3.17;;;;;;;18.90;77.45;96001.41;5069941;28;20646;-72
2023/07/15 02:00:36;;;;;;;7.03;3.72;;;;;;;18.89;76.73;96004.53;5069746;28;20150;-72
2023/07/15 02:03:03;;;;;;;5.68;3.60;;;;;;;18.77;77.06;96002.84;5068856;28;20492;-71
2023/07/15 02:05:29;;;;;;;6.78;3.20;;;;;;;18.77;76.77;96003.66;5070200;28;20048;-71
2023/07/15 02:07:56;;;;;;;5.28;3.50;;;;;;;18.80;76.58;96004.88;5070379;28;20048;-71
2023/07/15 02:10:23;;;;;;;6.22;3.10;;;;;;;18.75;77.61;95997.72;5069878;28;20049;-71
2023/07/15 02:12:50;;;;;;;6.05;2.95;;;;;;;18.82;77.97;96004.47;5069580;28;20045;-71
2023/07/15 02:15:18;;;;;;;4.85;3.35;;;;;;;18.80;77.29;96001.31;5069409;28;20044;-71
2023/07/15 02:17:45;;;;;;;6.22;3.33;;;;;;;18.79;77.04;96008.78;5069898;28;20411;-71
2023/07/15 02:20:13;;;;;;;6.05;3.00;;;;;;;18.77;77.88;96003.66;5069785;28;20509;-72
2023/07/15 02:22:39;;;;;;;3.90;3.13;;;;;;;18.76;78.73;96001.28;5069628;28;20036;-71
2023/07/15 02:25:07;;;;;;;5.70;3.22;;;;;;;18.72;78.96;96003.19;5069325;28;20393;-71
2023/07/15 02:27:34;;;;;;;4.53;3.30;;;;;;;18.71;79.70;95998.88;5070519;28;20049;-72
2023/07/15 02:30:00;;;;;;;4.15;3.22;;;;;;;18.69;79.87;95996.50;5069646;28;20060;-71
2023/07/15 02:32:39;;;;;;;6.40;3.45;;;;;;;18.60;79.76;96007.00;5069263;28;20037;-71
2023/07/15 02:35:09;;;;;;;5.22;3.17;;;;;;;18.52;79.50;96008.88;5049550;28;20534;-72
2023/07/15 02:37:36;;;;;;;5.53;3.60;;;;;;;18.48;79.78;95997.03;5049862;28;20053;-71
2023/07/15 02:40:04;;;;;;;5.30;3.53;;;;;;;18.44;80.05;96007.22;5049235;28;20049;-72
2023/07/15 02:42:33;;;;;;;7.20;3.47;;;;;;;18.38;79.93;96011.50;5062847;28;20040;-71
2023/07/15 02:45:00;;;;;;;7.22;3.85;;;;;;;18.00;82.43;96007.09;5069525;28;20564;-71
2023/07/15 02:47:26;;;;;;;5.88;3.70;;;;;;;18.11;82.35;96010.75;5068841;28;20051;-71
2023/07/15 02:49:54;;;;;;;8.82;4.05;;;;;;;17.96;83.41;96009.81;5069921;28;20052;-71
2023/07/15 02:52:20;;;;;;;6.05;4.13;;;;;;;18.11;83.06;96004.47;5069348;28;20051;-71
2023/07/15 02:54:47;;;;;;;6.03;3.20;;;;;;;18.20;82.83;96003.00;5069129;28;20516;-71
2023/07/15 02:57:13;;;;;;;6.10;3.83;;;;;;;18.10;83.21;96000.13;5068833;28;20415;-71
2023/07/15 02:59:40;;;;;;;4.90;3.50;;;;;;;18.22;83.02;95999.91;5069652;28;20048;-71
2023/07/15 03:02:06;;;;;;;4.72;3.85;;;;;;;18.22;82.92;95994.38;5072345;28;20057;-72
2023/07/15 03:04:33;;;;;;;6.60;3.90;;;;;;;18.21;83.00;96003.81;5073457;28;20045;-71
2023/07/15 03:07:01;;;;;;;6.10;3.28;;;;;;;18.29;82.69;95994.47;5073628;28;20048;-71
2023/07/15 03:09:27;;;;;;;7.57;3.70;;;;;;;18.24;83.12;96003.84;5073236;28;20048;-71
2023/07/15 03:11:53;;;;;;;5.47;3.65;;;;;;;18.36;83.52;96002.00;5073679;28;20443;-71
2023/07/15 03:14:19;;;;;;;6.68;3.60;;;;;;;18.38;83.06;96006.00;5072285;28;20044;-71
2023/07/15 03:16:46;;;;;;;6.93;4.25;;;;;;;18.37;82.84;96006.34;5073557;28;20504;-71
2023/07/15 03:19:12;;;;;;;5.78;3.40;;;;;;;18.35;83.87;96003.19;5072941;28;20074;-71
2023/07/15 03:21:39;;;;;;;5.20;3.83;;;;;;;18.19;84.40;96001.44;5073187;28;20044;-71
2023/07/15 03:24:07;;;;;;;6.35;3.83;;;;;;;18.10;84.21;96011.16;5072417;28;20044;-71
2023/07/15 03:26:34;;;;;;;10.02;3.90;;;;;;;17.82;87.08;96006.06;5073361;28;20419;-71
2023/07/15 03:29:00;;;;;;;5.20;3.60;;;;;;;17.87;86.38;96003.78;5073143;28;20049;-71
2023/07/15 03:31:27;;;;;;;5.70;3.70;;;;;;;17.77;86.97;95998.94;5072642;28;20061;-71
2023/07/15 03:33:53;;;;;;;7.00;3.90;;;;;;;17.94;85.77;95997.56;5072688;28;20518;-71
2023/07/15 03:36:20;;;;;;;4.07;3.40;;;;;;;18.03;85.21;96008.31;5072572;28;20045;-71
2023/07/15 03:38:46;;;;;;;6.22;3.58;;;;;;;18.06;85.26;96008.34;5072995;28;20044;-71
2023/07/15 03:41:14;;;;;;;4.53;3.50;;;;;;;18.19;84.93;96006.16;5072400;28;20044;-71
2023/07/15 03:43:41;;;;;;;4.50;3.17;;;;;;;18.29;84.54;95996.41;5072484;28;20056;-71
2023/07/15 03:46:07;;;;;;;6.32;3.83;;;;;;;18.21;84.03;95998.28;5072176;28;20055;-72
2023/07/15 03:48:34;;;;;;;6.60;3.90;;;;;;;18.10;83.94;95997.38;5072943;28;20047;-71
2023/07/15 03:51:00;;;;;;;6.22;3.55;;;;;;;18.22;83.59;96003.44;5072383;28;20055;-71
2023/07/15 03:53:26;;;;;;;8.40;3.75;;;;;;;18.30;82.87;96001.56;5072269;28;20052;-71
2023/07/15 03:55:53;;;;;;;7.05;3.65;;;;;;;18.27;83.20;96002.31;5072949;28;20045;-71
2023/07/15 03:58:21;;;;;;;4.35;3.38;;;;;;;18.35;83.87;96003.97;5072027;28;20048;-71
2023/07/15 04:00:47;;;;;;;8.68;3.70;;;;;;;18.15;82.79;95994.28;5072686;28;20044;-71
2023/07/15 04:03:14;;;;;;;4.43;3.80;;;;;;;18.18;83.50;95999.06;5071583;28;20052;-71
2023/07/15 04:05:40;;;;;;;4.82;3.45;;;;;;;18.26;83.35;96004.25;5072618;28;20052;-72
2023/07/15 04:08:06;;;;;;;5.20;3.50;;;;;;;18.29;83.68;95999.97;5072380;28;20048;-71
2023/07/15 04:10:33;;;;;;;4.85;3.45;;;;;;;18.38;83.10;96008.75;5072612;28;20047;-71
2023/07/15 04:13:00;;;;;;;5.60;3.55;;;;;;;18.43;83.20;96000.13;5070843;28;20047;-72
2023/07/15 04:15:27;;;;;;;5.63;3.63;;;;;;;18.52;83.43;96003.38;5072386;28;20045;-72
2023/07/15 04:17:54;;;;;;;4.47;3.17;;;;;;;18.56;83.48;95999.88;5073734;28;20040;-71
2023/07/15 04:20:21;;;;;;;4.15;3.38;;;;;;;18.64;83.55;96007.06;5072568;28;20044;-72
2023/07/15 04:22:48;;;;;;;3.85;3.17;;;;;;;18.68;83.32;96005.13;5073553;28;20097;-71
2023/07/15 04:25:14;;;;;;;6.25;4.03;;;;;;;18.62;83.52;95995.59;5075042;28;20040;-72
2023/07/15 04:27:41;;;;;;;4.70;3.40;;;;;;;18.73;83.01;96007.53;5075388;28;20068;-71
2023/07/15 04:30:09;;;;;;;6.90;3.47;;;;;;;18.82;82.90;96005.28;5072635;28;20040;-72
2023/07/15 04:32:37;;;;;;;4.22;3.13;;;;;;;18.86;83.20;96011.63;5077822;28;20051;-71
2023/07/15 04:35:04;;;;;;;4.53;2.80;;;;;;;18.91;83.14;96014.03;5071926;28;20076;-72
2023/07/15 04:37:31;;;;;;;4.63;2.95;;;;;;;18.95;82.77;96014.06;5074378;28;20051;-72
2023/07/15 04:39:58;;;;;;;3.95;3.20;;;;;;;18.99;82.03;96010.16;5073000;28;20127;-72
2023/07/15 04:42:24;;;;;;;4.72;3.72;;;;;;;18.99;81.34;96015.66;5073621;28;20048;-72
2023/07/15 04:44:51;;;;;;;5.68;3.10;;;;;;;19.09;80.77;96013.41;5075140;28;20056;-72
2023/07/15 04:47:17;;;;;;;5.18;3.03;;;;;;;19.10;80.77;96013.00;5073387;28;20491;-71
2023/07/15 04:49:45;;;;;;;6.82;3.60;;;;;;;19.10;80.35;96015.75;5070908;28;20488;-71
2023/07/15 04:52:11;;;;;;;6.63;3.65;;;;;;;19.22;80.25;96011.94;5071363;28;20056;-72
2023/07/15 04:54:38;;;;;;;8.00;3.70;;;;;;;19.20;80.18;96014.28;5071951;28;20055;-71
2023/07/15 04:57:05;;;;;;;6.28;3.53;;;;;;;19.26;80.08;96016.31;5071430;28;20052;-71
2023/07/15 04:59:32;;;;;;;6.85;3.17;;;;;;;19.30;79.73;96019.88;5071544;28;20051;-71
2023/07/15 05:01:58;;;;;;;4.60;3.10;;;;;;;19.46;79.28;96025.13;5071589;28;20049;-72
2023/07/15 05:04:25;;;;;;;5.53;3.20;;;;;;;19.56;79.09;96021.63;5073937;28;20052;-72
2023/07/15 05:06:53;;;;;;;4.60;3.30;;;;;;;19.61;79.15;96025.25;5075174;28;20045;-72
2023/07/15 05:09:19;;;;;;;4.22;3.17;;;;;;;19.73;78.51;96030.47;5075703;28;20086;-72
2023/07/15 05:11:46;;;;;;;5.03;3.10;;;;;;;19.72;78.06;96029.66;5076219;28;20056;-71
2023/07/15 05:14:12;;;;;;;5.30;2.75;;;;;;;19.83;77.57;96034.47;5075854;28;20156;-73
2023/07/15 05:16:43;;;;;;;4.07;3.00;;;;;;;19.93;78.26;96029.00;5076985;28;20052;-72
2023/07/15 05:19:10;;;;;;;4.95;3.00;;;;;;;19.91;77.28;96031.38;5076228;28;20492;-71
2023/07/15 05:21:36;;;;;;;4.93;3.13;;;;;;;20.03;77.09;96033.78;5076608;28;20049;-72
2023/07/15 05:24:04;;;;;;;7.57;3.10;;;;;;;20.16;76.87;96027.94;5074608;28;20051;-73
2023/07/15 05:26:31;;;;;;;4.13;2.90;;;;;;;20.30;76.53;96033.53;5075141;28;20055;-73
2023/07/15 05:28:57;;;;;;;4.22;3.15;;;;;;;20.40;76.38;96034.75;5075618;28;20059;-74
2023/07/15 05:31:24;;;;;;;4.10;3.05;;;;;;;20.40;76.03;96035.53;5075093;28;20041;-72
2023/07/15 05:33:50;;;;;;;4.10;2.88;;;;;;;20.52;75.87;96042.75;5073539;28;20051;-71
2023/07/15 05:36:17;;;;;;;4.47;3.10;;;;;;;20.50;74.43;96034.81;5070680;28;20056;-71
2023/07/15 05:38:44;;;;;;;6.28;2.88;;;;;;;20.62;74.17;96030.09;5070850;28;20064;-71
2023/07/15 05:41:12;;;;;;;4.80;2.97;;;;;;;20.71;72.49;96030.53;5070200;28;20048;-71
2023/07/15 05:43:39;;;;;;;6.18;3.00;;;;;;;20.76;72.73;96039.22;5070449;28;20049;-71
2023/07/15 05:46:05;;;;;;;7.47;2.92;;;;;;;20.87;72.18;96028.19;5069723;28;20059;-72
2023/07/15 05:48:32;;;;;;;5.03;2.95;;;;;;;20.96;71.75;96023.06;5070153;28;20044;-72
2023/07/15 05:50:58;;;;;;;5.82;3.08;;;;;;;21.13;71.38;96023.47;5070396;28;20048;-71
2023/07/15 05:53:25;;;;;;;3.80;2.72;;;;;;;21.22;70.41;96026.66;5069695;28;20037;-72
2023/07/15 05:55:51;;;;;;;5.15;2.88;;;;;;;21.35;70.15;96023.13;5070477;28;20048;-71
2023/07/15 05:58:19;;;;;;;4.50;3.17;;;;;;;21.44;68.88;96025.47;5069741;28;20389;-71
2023/07/15 06:00:47;;;;;;;6.18;2.83;;;;;;;21.55;68.64;96020.72;5069828;28;20040;-71
2023/07/15 06:03:13;;;;;;;5.75;2.35;;;;;;;21.62;67.71;96023.50;5069487;28;20048;-71
2023/07/15 06:05:39;;;;;;;6.35;2.70;;;;;;;21.80;67.71;96023.47;5070071;28;20734;-71
2023/07/15 06:08:06;;;;;;;4.07;2.60;;;;;;;21.92;68.22;96022.25;5069818;28;20040;-72
2023/07/15 06:10:32;;;;;;;4.65;2.70;;;;;;;21.95;67.28;96021.47;5069587;28;20045;-71
2023/07/15 06:12:59;;;;;;;3.40;2.50;;;;;;;22.12;67.08;96020.63;5069467;28;20048;-71
2023/07/15 06:15:28;;;;;;;7.88;3.05;;;;;;;22.24;66.13;96021.38;5069249;28;20060;-71
2023/07/15 06:17:55;;;;;;;3.55;2.50;;;;;;;22.42;66.33;96013.00;5070133;28;20518;-71
2023/07/15 06:20:22;;;;;;;4.13;2.60;;;;;;;22.60;66.84;96022.00;5069174;28;20059;-72
2023/07/15 06:22:49;;;;;;;4.25;2.70;;;;;;;22.55;67.66;96026.03;5069637;28;20044;-72
2023/07/15 06:25:16;;;;;;;5.35;2.65;;;;;;;22.60;67.04;96022.84;5069090;28;20052;-72
2023/07/15 06:27:42;;;;;;;5.93;2.92;;;;;;;22.74;66.99;96026.72;5069890;28;20098;-71
2023/07/15 06:30:10;;;;;;;4.50;3.03;;;;;;;22.86;67.54;96017.91;5069371;28;20040;-72
2023/07/15 06:32:37;;;;;;;3.65;2.63;;;;;;;22.96;66.69;96022.63;5069966;28;20064;-72
2023/07/15 06:35:04;;;;;;;4.57;2.40;;;;;;;23.02;67.27;96012.69;5068668;28;20048;-71
2023/07/15 06:37:31;;;;;;;4.30;2.67;;;;;;;23.20;66.18;96014.53;5070287;28;20067;-71
2023/07/15 06:39:58;;;;;;;4.03;2.35;;;;;;;23.27;67.23;96020.03;5069184;28;20048;-71
2023/07/15 06:42:24;;;;;;;8.38;4.05;;;;;;;23.29;67.40;96014.88;5069147;28;20041;-71
2023/07/15 06:44:51;;;;;;;3.75;2.33;;;;;;;23.37;64.72;96019.16;5069230;28;20052;-71
2023/07/15 06:47:17;;;;;;;3.78;2.17;;;;;;;23.51;64.37;96019.03;5069066;28;20420;-71
2023/07/15 06:49:45;;;;;;;4.32;2.40;;;;;;;23.67;64.05;96010.97;5069790;28;20040;-71
2023/07/15 06:52:11;;;;;;;4.43;2.92;;;;;;;23.80;64.69;96018.78;5067856;28;20052;-72
2023/07/15 06:54:38;;;;;;;4.68;2.40;;;;;;;23.82;65.25;96010.84;5069187;28;20045;-71
2023/07/15 06:57:05;;;;;;;3.15;2.35;;;;;;;23.85;66.22;96013.56;5069533;28;20430;-72
2023/07/15 06:59:31;;;;;;;4.10;2.60;;;;;;;24.04;65.52;96000.28;5069639;28;20051;-72
2023/07/15 07:01:58;;;;;;;7.18;2.70;;;;;;;24.18;64.32;96000.13;5069531;28;20045;-71
2023/07/15 07:04:24;;;;;;;4.57;2.55;;;;;;;24.35;63.62;96009.47;5068916;28;20051;-72
2023/07/15 07:06:52;;;;;;;4.45;2.65;;;;;;;24.50;62.49;95988.63;5069309;28;20047;-72
2023/07/15 07:09:18;;;;;;;4.88;2.53;;;;;;;24.68;61.05;95989.16;5068689;28;20052;-72
2023/07/15 07:11:45;;;;;;;5.50;2.55;;;;;;;24.84;60.40;95990.53;5069509;28;20673;-71
2023/07/15 07:14:11;;;;;;;3.83;2.20;;;;;;;24.96;60.20;95992.75;5068629;28;20118;-72
2023/07/15 07:16:38;;;;;;;4.70;2.33;;;;;;;25.14;58.68;95986.94;5069244;28;20399;-72
2023/07/15 07:19:04;;;;;;;4.60;2.45;;;;;;;25.27;57.67;95989.91;5068806;28;20048;-72
2023/07/15 07:21:31;;;;;;;4.20;2.42;;;;;;;25.37;58.39;95984.19;5069466;28;20048;-72
2023/07/15 07:23:59;;;;;;;5.13;2.55;;;;;;;25.46;56.23;95986.41;5069094;28;20491;-71
2023/07/15 07:26:25;;;;;;;6.22;2.50;;;;;;;25.68;55.40;95982.00;5068545;28;20048;-72
2023/07/15 07:28:52;;;;;;;3.97;2.20;;;;;;;25.75;56.12;95981.16;5069357;28;20430;-72
2023/07/15 07:31:18;;;;;;;4.70;2.55;;;;;;;25.88;55.36;95978.50;5068814;28;20044;-72
2023/07/15 07:33:46;;;;;;;4.90;2.47;;;;;;;26.00;55.11;95986.25;5068756;28;20447;-72
2023/07/15 07:36:12;;;;;;;4.70;2.65;;;;;;;26.18;55.89;95986.69;5068773;28;20055;-72
2023/07/15 07:38:39;;;;;;;4.22;2.15;;;;;;;26.29;50.67;95978.88;5069395;28;20384;-72
2023/07/15 07:41:07;;;;;;;3.97;2.40;;;;;;;26.42;50.44;95983.88;5068356;28;20502;-71
2023/07/15 07:43:35;;;;;;;3.92;2.30;;;;;;;26.59;52.31;95977.09;5069032;28;20048;-72
2023/07/15 07:46:02;;;;;;;2.40;1.90;;;;;;;26.66;48.71;95971.34;5068537;28;20052;-72
2023/07/15 07:48:29;;;;;;;3.00;2.08;;;;;;;26.84;47.00;95976.56;5070856;28;20052;-72
2023/07/15 07:50:56;;;;;;;5.05;1.88;;;;;;;26.92;46.47;95977.16;5072683;28;20539;-72
2023/07/15 07:53:22;;;;;;;4.68;1.90;;;;;;;27.04;43.39;95977.28;5072319;28;20040;-72
2023/07/15 07:55:49;;;;;;;3.30;1.85;;;;;;;27.24;41.92;95973.63;5072095;28;20051;-72
2023/07/15 07:58:19;;;;;;;3.00;1.70;;;;;;;27.38;42.62;95980.91;5072333;28;20504;-72
2023/07/15 08:00:46;;;;;;;3.35;1.75;;;;;;;27.40;41.30;95978.44;5072542;28;20064;-72
2023/07/15 08:03:13;;;;;;;2.47;1.60;;;;;;;27.39;40.29;95988.84;5072347;28;20408;-74
2023/07/15 08:05:42;;;;;;;3.28;1.65;;;;;;;27.59;38.41;95985.94;5072631;28;20049;-72
2023/07/15 08:08:09;;;;;;;2.85;1.50;;;;;;;27.67;40.79;95986.53;5074617;28;20093;-72
2023/07/15 08:10:35;;;;;;;2.70;1.50;;;;;;;27.76;38.24;95981.94;5078085;28;20048;-73
2023/07/15 08:13:02;;;;;;;2.92;1.35;;;;;;;27.92;40.75;95985.91;5075646;28;20140;-73
2023/07/15 08:15:30;;;;;;;1.75;1.40;;;;;;;28.04;43.18;95976.81;5073822;28;20050;-72
2023/07/15 08:17:57;;;;;;;1.92;1.35;;;;;;;28.18;37.02;95981.22;5072944;28;20051;-72
2023/07/15 08:20:24;;;;;;;2.90;1.30;;;;;;;28.35;36.65;95979.97;5072175;28;20045;-72
2023/07/15 08:22:50;;;;;;;2.10;1.40;;;;;;;28.57;38.75;95982.94;5071563;28;20045;-72
2023/07/15 08:25:17;;;;;;;2.00;1.58;;;;;;;28.73;37.20;95976.44;5066450;28;20048;-72
2023/07/15 08:27:43;;;;;;;2.70;1.70;;;;;;;28.89;38.97;95975.56;5050737;28;20681;-71
2023/07/15 08:30:11;;;;;;;2.40;1.80;;;;;;;29.03;41.88;95972.34;5065982;28;20048;-72
2023/07/15 08:32:38;;;;;;;4.65;1.90;;;;;;;29.10;38.64;95972.91;5071639;28;20514;-72
2023/07/15 08:35:06;;;;;;;2.78;1.77;;;;;;;29.26;39.22;95974.78;5069930;28;20055;-74
2023/07/15 08:37:33;;;;;;;2.42;1.40;;;;;;;29.34;35.58;95976.16;5071961;28;20048;-74
2023/07/15 08:40:00;;;;;;;2.08;1.35;;;;;;;29.51;33.89;95965.56;5071516;28;20090;-74
2023/07/15 08:42:27;;;;;;;4.78;1.50;;;;;;;29.63;36.77;95972.41;5070919;28;20048;-73
2023/07/15 08:44:54;;;;;;;5.88;1.65;;;;;;;29.73;34.83;95968.44;5071225;28;20044;-74
2023/07/15 08:47:22;;;;;;;3.65;1.50;;;;;;;29.86;35.65;95969.22;5070953;28;20098;-74
2023/07/15 08:49:51;;;;;;;3.20;2.05;;;;;;;29.97;37.28;95960.41;5071911;28;20049;-74
2023/07/15 08:52:18;;;;;;;1.75;1.50;;;;;;;30.03;35.00;95963.41;5071101;28;20048;-74
2023/07/15 08:54:46;;;;;;;3.55;2.13;;;;;;;30.07;35.49;95958.44;5071139;28;20059;-74
2023/07/15 08:57:12;;;;;;;3.15;1.70;;;;;;;30.18;36.14;95950.47;5070976;28;20553;-74
2023/07/15 08:59:38;;;;;;;4.18;1.70;;;;;;;30.19;34.65;95949.22;5070682;28;20044;-74
2023/07/15 09:02:05;;;;;;;4.00;1.17;;;;;;;30.15;32.34;95945.75;5071005;28;20040;-74
2023/07/15 09:04:31;;;;;;;3.58;1.42;;;;;;;30.37;34.51;95948.53;5070989;28;20142;-74
2023/07/15 09:06:59;;;;;;;2.45;1.95;;;;;;;30.52;35.67;95937.56;5071241;28;20052;-74
2023/07/15 09:09:32;;;;;;;3.55;1.50;;;;;;;30.60;32.64;95950.09;5070800;28;20062;-74
2023/07/15 09:12:01;;;;;;;2.35;1.55;;;;;;;30.64;34.19;95945.09;5071344;28;20075;-74
2023/07/15 09:14:28;;;;;;;1.85;1.38;;;;;;;30.74;34.09;95943.94;5070244;28;20044;-74
2023/07/15 09:16:55;;;;;;;4.47;1.42;;;;;;;30.86;33.84;95954.31;5070955;28;20052;-74
2023/07/15 09:19:22;;;;;;;3.72;1.50;;;;;;;30.95;32.69;95949.97;5070837;28;20070;-74
2023/07/15 09:21:53;;;;;;;2.95;1.50;;;;;;;30.99;33.75;95942.19;5070999;28;20049;-74
2023/07/15 09:24:22;;;;;;;2.20;1.63;;;;;;;31.14;35.59;95943.19;5069358;28;20380;-74
2023/07/15 09:26:49;;;;;;;3.97;1.55;;;;;;;31.15;33.48;95927.88;5070893;28;20049;-74
2023/07/15 09:29:16;;;;;;;3.28;1.58;;;;;;;31.02;33.36;95944.09;5070683;28;20075;-74
2023/07/15 09:31:42;;;;;;;3.35;1.98;;;;;;;31.02;32.89;95927.22;5071116;28;20051;-74
2023/07/15 09:34:09;;;;;;;2.35;1.58;;;;;;;31.05;32.77;95931.88;5069897;28;20045;-74
2023/07/15 09:36:36;;;;;;;2.90;1.30;;;;;;;31.09;32.74;95924.09;5070365;28;20127;-74
2023/07/15 09:39:11;;;;;;;2.10;1.48;;;;;;;31.21;34.12;95937.25;5070078;28;20055;-75
2023/07/15 09:41:39;;;;;;;2.67;1.50;;;;;;;31.24;31.26;95930.72;5070646;28;20047;-74
2023/07/15 09:44:06;;;;;;;1.85;1.25;;;;;;;31.33;31.81;95927.97;5069468;28;20054;-74
2023/07/15 09:46:33;;;;;;;3.78;1.50;;;;;;;31.41;31.59;95923.56;5070559;28;20044;-74
2023/07/15 09:49:00;;;;;;;2.28;1.60;;;;;;;31.42;29.61;95927.94;5070633;28;20061;-74
2023/07/15 09:51:27;;;;;;;2.13;1.35;;;;;;;31.53;30.70;95918.28;5068637;28;20040;-74
2023/07/15 09:53:56;;;;;;;2.65;1.45;;;;;;;31.55;30.03;95910.16;5069968;28;20052;-74
2023/07/15 09:56:24;;;;;;;3.55;1.60;;;;;;;31.59;31.49;95922.06;5069828;28;20052;-74
2023/07/15 09:58:56;;;;;;;4.25;1.50;;;;;;;31.57;30.69;95911.25;5070351;28;20044;-74
2023/07/15 10:01:27;;;;;;;;;;;;;;;31.50;29.54;95907.97;5070156;28;20519;-74
2023/07/15 10:04:01;;;;;;;4.15;1.63;;;;;;;31.32;30.43;95915.16;5069869;28;19920;-74
2023/07/15 10:06:29;;;;;;;2.20;1.48;;;;;;;31.50;31.05;95903.13;5069579;28;20078;-74
2023/07/15 10:08:55;;;;;;;2.88;1.42;;;;;;;31.65;34.45;95897.66;5070073;28;20045;-74
2023/07/15 10:11:22;;;;;;;3.10;1.40;;;;;;;31.70;31.36;95905.50;5069808;28;20048;-74
2023/07/15 10:13:49;;;;;;;1.83;1.30;;;;;;;31.67;31.45;95895.16;5069932;28;20049;-74
2023/07/15 10:16:18;;;;;;;1.88;1.35;;;;;;;31.69;30.76;95892.69;5068798;28;20044;-74
2023/07/15 10:18:46;;;;;;;2.33;1.40;;;;;;;31.68;29.53;95891.09;5069693;28;20418;-74
2023/07/15 10:21:15;;;;;;;2.05;1.45;;;;;;;31.86;32.01;95895.97;5069718;28;20048;-74
2023/07/15 10:23:42;;;;;;;2.33;1.40;;;;;;;31.87;27.99;95891.91;5069340;28;20056;-74
2023/07/15 10:26:10;;;;;;;2.38;1.42;;;;;;;31.88;27.81;95899.88;5069131;28;20508;-74
2023/07/15 10:28:39;;;;;;;3.25;1.40;;;;;;;31.81;30.56;95888.16;5070177;28;20076;-74
2023/07/15 10:31:08;;;;;;;3.38;1.40;;;;;;;31.97;31.44;95887.06;5069355;28;20518;-74
2023/07/15 10:33:37;;;;;;;2.10;1.40;;;;;;;31.89;28.33;95878.91;5069536;28;20458;-74
2023/07/15 10:36:06;;;;;;;1.67;1.27;;;;;;;32.08;29.95;95876.09;5067944;28;20048;-74
2023/07/15 10:38:33;;;;;;;2.63;1.40;;;;;;;32.14;29.07;95877.00;5069877;28;20075;-74
2023/07/15 10:41:02;;;;;;;2.33;1.38;;;;;;;32.21;33.44;95876.69;5069573;28;20051;-74
2023/07/15 10:43:40;;;;;;;2.25;1.27;;;;;;;32.21;29.38;95871.03;5069206;28;20040;-74
2023/07/15 10:46:07;;;;;;;1.60;1.30;;;;;;;32.17;27.30;95871.22;5068587;28;20053;-74
2023/07/15 10:48:36;;;;;;;2.75;1.55;;;;;;;32.21;31.32;95865.41;5070013;28;20063;-74
2023/07/15 10:51:05;;;;;;;4.70;1.70;;;;;;;32.20;32.44;95859.00;5069083;28;20045;-75
2023/07/15 10:53:32;;;;;;;2.50;1.65;;;;;;;32.19;30.19;95865.13;5069445;28;20064;-74
2023/07/15 10:56:00;;;;;;;3.10;1.40;;;;;;;32.24;30.64;95863.69;5069248;28;20076;-74
2023/07/15 10:58:27;;;;;;;5.70;1.67;;;;;;;32.28;30.49;95859.47;5069367;28;20037;-74
2023/07/15 11:00:59;;;;;;;2.85;1.60;;;;;;;32.31;34.40;95864.13;5069699;28;20051;-74
2023/07/15 11:03:26;;;;;;;2.97;1.67;;;;;;;32.43;29.50;95865.25;5068959;28;20048;-74
2023/07/15 11:05:58;;;;;;;2.83;1.40;;;;;;;32.30;29.17;95859.75;5069143;28;20102;-74
2023/07/15 11:08:26;;;;;;;2.25;1.40;;;;;;;32.31;29.21;95857.72;5069234;28;20044;-74
2023/07/15 11:10:59;;;;;;;2.65;1.35;;;;;;;32.44;30.59;95861.94;5069423;28;20036;-74
2023/07/15 11:13:26;;;;;;;3.97;1.60;;;;;;;32.55;31.16;95861.44;5068901;28;20522;-74
2023/07/15 11:15:53;;;;;;;3.60;1.65;;;;;;;32.41;30.30;95860.06;5069048;28;20049;-74
2023/07/15 11:18:21;;;;;;;4.72;1.70;;;;;;;32.55;28.08;95866.31;5068769;28;20072;-74
2023/07/15 11:20:49;;;;;;;2.05;1.55;;;;;;;32.54;27.67;95847.84;5069488;28;20420;-73
2023/07/15 11:23:18;;;;;;;5.00;1.50;;;;;;;32.58;30.55;95840.00;5071977;28;20065;-74
2023/07/15 11:25:45;;;;;;;1.75;1.17;;;;;;;32.68;31.32;95836.66;5072905;28;20052;-74
2023/07/15 11:28:12;;;;;;;2.58;1.50;;;;;;;32.64;28.85;95830.41;5073008;28;20044;-74
2023/07/15 11:30:40;;;;;;;2.33;1.33;;;;;;;32.60;28.13;95826.19;5073488;28;20059;-74
2023/07/15 11:33:07;;;;;;;3.83;1.77;;;;;;;32.77;28.28;95821.72;5072105;28;20048;-75
2023/07/15 11:35:35;;;;;;;2.85;1.58;;;;;;;32.71;27.36;95820.81;5072942;28;20055;-74